createdAt,value
2019-05-26T00:00:49.936Z,97.13
2019-05-26T00:02:04.616Z,97.13
2019-05-26T00:02:49.977Z,97.71
2019-05-26T00:03:49.991Z,96.94
2019-05-26T00:04:50.011Z,97.32
2019-05-26T00:05:50.036Z,96.94
2019-05-26T00:06:50.054Z,97.03
2019-05-26T00:07:50.070Z,97.03
2019-05-26T00:08:50.088Z,97.32
2019-05-26T00:09:50.113Z,97.42
2019-05-26T00:10:50.129Z,97.42
2019-05-26T00:11:50.152Z,97.32
2019-05-26T00:13:50.194Z,97.03
2019-05-26T00:14:50.248Z,97.42
2019-05-26T00:15:50.232Z,97.51
2019-05-26T00:16:50.252Z,97.42
2019-05-26T00:18:04.935Z,96.94
2019-05-26T00:18:50.291Z,97.51
2019-05-26T00:19:50.315Z,96.84
2019-05-26T00:20:50.332Z,97.32
2019-05-26T00:21:50.356Z,97.03
2019-05-26T00:22:50.380Z,97.03
2019-05-26T00:23:50.393Z,97.22
2019-05-26T00:24:50.430Z,97.13
2019-05-26T00:25:50.433Z,97.08
2019-05-26T00:26:50.458Z,97.66
2019-05-26T00:27:50.476Z,96.98
2019-05-26T00:28:50.730Z,97.85
2019-05-26T00:29:50.522Z,97.85
2019-05-26T00:30:50.539Z,97.75
2019-05-26T00:31:50.580Z,97.66
2019-05-26T00:32:50.614Z,97.85
2019-05-26T00:34:05.259Z,97.56
2019-05-26T00:34:50.616Z,97.66
2019-05-26T00:35:50.634Z,97.56
2019-05-26T00:37:52.911Z,97.66
2019-05-26T00:38:50.698Z,97.85
2019-05-26T00:39:50.717Z,97.46
2019-05-26T00:40:50.738Z,97.75
2019-05-26T00:41:50.758Z,97.94
2019-05-26T00:42:50.778Z,97.66
2019-05-26T00:43:50.800Z,97.75
2019-05-26T00:44:50.892Z,97.94
2019-05-26T00:45:50.839Z,97.85
2019-05-26T00:46:50.626Z,98.03
2019-05-26T00:47:50.880Z,98.22
2019-05-26T00:49:05.562Z,98.32
2019-05-26T00:49:50.928Z,98.22
2019-05-26T00:50:50.936Z,98.13
2019-05-26T00:51:50.957Z,98.18
2019-05-26T00:52:50.987Z,98.22
2019-05-26T00:53:50.998Z,98.27
2019-05-26T00:54:51.017Z,97.8
2019-05-26T00:55:51.038Z,97.99
2019-05-26T00:56:51.058Z,98.36
2019-05-26T00:57:51.077Z,98.36
2019-05-26T00:58:51.099Z,98.08
2019-05-26T01:00:51.140Z,98.65
2019-05-26T01:01:51.158Z,98.18
2019-05-26T01:02:51.198Z,98.56
2019-05-26T01:03:51.201Z,98.18
2019-05-26T01:04:51.222Z,98.18
2019-05-26T01:05:51.244Z,97.99
2019-05-26T01:06:51.257Z,98.08
2019-05-26T01:08:08.119Z,98.36
2019-05-26T01:08:51.298Z,98.75
2019-05-26T01:09:51.321Z,98.46
2019-05-26T01:10:51.337Z,98.41
2019-05-26T01:11:51.362Z,98.51
2019-05-26T01:12:51.128Z,98.13
2019-05-26T01:13:51.412Z,98.7
2019-05-26T01:14:51.417Z,98.32
2019-05-26T01:15:51.439Z,98.41
2019-05-26T01:16:54.974Z,98.41
2019-05-26T01:17:51.477Z,98.7
2019-05-26T01:18:51.497Z,98.89
2019-05-26T01:21:06.201Z,98.32
2019-05-26T01:21:51.566Z,98.6
2019-05-26T01:22:53.786Z,98.6
2019-05-26T01:23:51.600Z,98.03
2019-05-26T01:24:51.616Z,98.41
2019-05-26T01:25:51.641Z,98.41
2019-05-26T01:26:51.660Z,98.03
2019-05-26T01:27:51.676Z,97.75
2019-05-26T01:28:51.698Z,98.03
2019-05-26T01:31:51.757Z,97.84
2019-05-26T01:32:51.825Z,97.84
2019-05-26T01:33:51.800Z,97.79
2019-05-26T01:34:51.825Z,97.7
2019-05-26T01:37:06.518Z,97.84
2019-05-26T01:37:51.873Z,97.6
2019-05-26T01:38:51.896Z,97.46
2019-05-26T01:39:51.912Z,97.65
2019-05-26T01:40:51.935Z,97.36
2019-05-26T01:41:51.952Z,96.94
2019-05-26T01:42:51.971Z,97.22
2019-05-26T01:43:51.992Z,97.31
2019-05-26T01:44:52.011Z,97.22
2019-05-26T01:45:52.032Z,97.89
2019-05-26T01:46:52.051Z,97.51
2019-05-26T01:47:52.074Z,97.31
2019-05-26T01:48:52.095Z,97.31
2019-05-26T01:49:52.110Z,97.31
2019-05-26T01:50:52.133Z,97.7
2019-05-26T01:51:52.149Z,97.31
2019-05-26T01:53:06.833Z,97.79
2019-05-26T01:53:52.188Z,97.7
2019-05-26T01:55:52.230Z,97.22
2019-05-26T01:56:52.250Z,97.31
2019-05-26T01:57:52.269Z,97.22
2019-05-26T01:58:52.287Z,97.13
2019-05-26T01:59:52.306Z,97.31
2019-05-26T02:00:52.325Z,97.22
2019-05-26T02:01:52.344Z,96.55
2019-05-26T02:02:52.365Z,96.08
2019-05-26T02:03:52.383Z,95.98
2019-05-26T02:04:52.429Z,95.79
2019-05-26T02:05:52.428Z,96.08
2019-05-26T02:06:52.442Z,95.79
2019-05-26T02:07:52.461Z,96.08
2019-05-26T02:09:07.144Z,95.22
2019-05-26T02:09:52.501Z,95.32
2019-05-26T02:10:52.520Z,95.98
2019-05-26T02:11:52.544Z,95.79
2019-05-26T02:12:52.579Z,95.32
2019-05-26T02:13:52.579Z,95.22
2019-05-26T02:14:52.601Z,94.74
2019-05-26T02:15:52.618Z,95.17
2019-05-26T02:16:52.637Z,94.98
2019-05-26T02:17:52.658Z,95.17
2019-05-26T02:18:52.689Z,95.08
2019-05-26T02:19:52.698Z,95.17
2019-05-26T02:20:52.721Z,95.08
2019-05-26T02:21:52.734Z,95.08
2019-05-26T02:22:52.757Z,95.27
2019-05-26T02:24:07.437Z,94.98
2019-05-26T02:24:52.793Z,94.98
2019-05-26T02:25:52.825Z,94.89
2019-05-26T02:26:52.831Z,94.6
2019-05-26T02:27:52.852Z,95.08
2019-05-26T02:28:52.877Z,94.42
2019-05-26T02:29:52.890Z,93.94
2019-05-26T02:30:52.913Z,93.65
2019-05-26T02:31:52.937Z,94.13
2019-05-26T02:32:52.946Z,93.84
2019-05-26T02:34:52.994Z,94.22
2019-05-26T02:35:53.017Z,94.32
2019-05-26T02:36:53.038Z,94.6
2019-05-26T02:37:53.047Z,94.13
2019-05-26T02:39:04.512Z,94.03
2019-05-26T02:39:53.090Z,94.51
2019-05-26T02:40:53.103Z,93.84
2019-05-26T02:41:53.141Z,94.13
2019-05-26T02:42:52.894Z,93.65
2019-05-26T02:43:53.173Z,93.65
2019-05-26T02:44:53.208Z,93.74
2019-05-26T02:45:53.217Z,93.55
2019-05-26T02:46:53.223Z,93.37
2019-05-26T02:47:53.239Z,93.55
2019-05-26T02:49:53.299Z,93.65
2019-05-26T02:50:53.294Z,93.27
2019-05-26T02:51:53.316Z,94.13
2019-05-26T02:52:53.338Z,93.18
2019-05-26T02:53:53.360Z,93.27
2019-05-26T02:54:53.382Z,93.94
2019-05-26T02:56:08.053Z,93.46
2019-05-26T02:56:53.413Z,93.55
2019-05-26T02:57:53.449Z,93.55
2019-05-26T02:58:53.454Z,93.18
2019-05-26T02:59:53.466Z,92.79
2019-05-26T03:00:53.495Z,93.18
2019-05-26T03:02:06.312Z,92.51
2019-05-26T03:02:53.523Z,92.51
2019-05-26T03:03:53.559Z,92.89
2019-05-26T03:04:53.583Z,92.51
2019-05-26T03:05:53.585Z,92.41
2019-05-26T03:07:53.620Z,92.79
2019-05-26T03:08:53.640Z,92.89
2019-05-26T03:09:53.659Z,92.7
2019-05-26T03:10:53.692Z,92.6
2019-05-26T03:12:08.360Z,92.6
2019-05-26T03:12:53.719Z,92.51
2019-05-26T03:13:53.738Z,92.7
2019-05-26T03:14:53.768Z,92.32
2019-05-26T03:15:53.775Z,92.51
2019-05-26T03:16:53.800Z,92.13
2019-05-26T03:17:53.813Z,92.03
2019-05-26T03:19:53.969Z,91.94
2019-05-26T03:20:53.870Z,91.56
2019-05-26T03:21:53.889Z,92.13
2019-05-26T03:22:53.926Z,92.13
2019-05-26T03:23:53.932Z,91.84
2019-05-26T03:25:53.969Z,92.41
2019-05-26T03:26:53.984Z,92.41
2019-05-26T03:28:08.666Z,92.41
2019-05-26T03:28:54.022Z,92.32
2019-05-26T03:29:54.059Z,92.51
2019-05-26T03:30:54.068Z,91.94
2019-05-26T03:31:53.836Z,92.13
2019-05-26T03:32:54.177Z,92.22
2019-05-26T03:33:54.127Z,92.18
2019-05-26T03:34:54.165Z,92.03
2019-05-26T03:35:54.165Z,91.99
2019-05-26T03:36:53.943Z,92.41
2019-05-26T03:37:53.947Z,92.74
2019-05-26T03:38:54.213Z,92.55
2019-05-26T03:39:54.239Z,92.27
2019-05-26T03:40:54.256Z,92.74
2019-05-26T03:41:54.273Z,93.03
2019-05-26T03:42:54.289Z,92.94
2019-05-26T03:44:08.974Z,93.89
2019-05-26T03:44:54.328Z,93.89
2019-05-26T03:45:54.355Z,93.98
2019-05-26T03:46:54.365Z,93.98
2019-05-26T03:47:54.400Z,93.89
2019-05-26T03:48:54.419Z,95.03
2019-05-26T03:50:54.456Z,95.98
2019-05-26T03:51:54.464Z,96.22
2019-05-26T03:52:54.506Z,96.27
2019-05-26T03:53:54.510Z,97.13
2019-05-26T03:54:54.522Z,97.13
2019-05-26T03:55:54.543Z,97.36
2019-05-26T03:56:54.560Z,97.27
2019-05-26T03:57:54.580Z,97.75
2019-05-26T03:59:09.264Z,97.56
2019-05-26T04:00:54.640Z,98.32
2019-05-26T04:01:59.936Z,97.75
2019-05-26T04:02:54.677Z,98.22
2019-05-26T04:03:54.701Z,98.41
2019-05-26T04:04:54.723Z,98.99
2019-05-26T04:05:54.737Z,98.99
2019-05-26T04:06:54.753Z,99.13
2019-05-26T04:07:54.785Z,99.41
2019-05-26T04:08:54.801Z,98.94
2019-05-26T04:10:07.168Z,99.22
2019-05-26T04:10:54.837Z,99.13
2019-05-26T04:11:54.855Z,99.04
2019-05-26T04:12:54.884Z,99.32
2019-05-26T04:13:54.893Z,99.22
2019-05-26T04:15:54.936Z,99.6
2019-05-26T04:16:58.705Z,99.18
2019-05-26T04:17:54.747Z,99.66
2019-05-26T04:18:55.040Z,99.46
2019-05-26T04:19:54.767Z,99.56
2019-05-26T04:20:55.032Z,99.27
2019-05-26T04:21:55.083Z,99.18
2019-05-26T04:22:54.875Z,99.46
2019-05-26T04:23:55.099Z,99.46
2019-05-26T04:24:55.113Z,99.75
2019-05-26T04:25:55.138Z,99.66
2019-05-26T04:26:55.163Z,99.66
2019-05-26T04:27:55.172Z,99.37
2019-05-26T04:28:55.198Z,99.04
2019-05-26T04:29:55.217Z,99.61
2019-05-26T04:31:09.895Z,99.13
2019-05-26T04:31:55.256Z,99.23
2019-05-26T04:32:55.275Z,99.23
2019-05-26T04:33:55.319Z,98.37
2019-05-26T04:35:55.356Z,99.18
2019-05-26T04:36:55.363Z,98.8
2019-05-26T04:37:55.129Z,98.8
2019-05-26T04:38:55.402Z,98.03
2019-05-26T04:39:55.428Z,98.47
2019-05-26T04:40:55.449Z,97.52
2019-05-26T04:41:55.465Z,97.42
2019-05-26T04:42:55.485Z,97.23
2019-05-26T04:43:55.509Z,96.75
2019-05-26T04:44:55.546Z,96.89
2019-05-26T04:45:55.549Z,96.42
2019-05-26T04:47:10.226Z,96.13
2019-05-26T04:47:55.348Z,95.84
2019-05-26T04:48:55.606Z,95.56
2019-05-26T04:49:55.631Z,95.65
2019-05-26T04:50:55.653Z,95.75
2019-05-26T04:51:55.667Z,95.65
2019-05-26T04:53:08.463Z,95.22
2019-05-26T04:53:55.726Z,94.65
2019-05-26T04:54:55.732Z,95.03
2019-05-26T04:55:55.756Z,94.36
2019-05-26T04:56:55.778Z,93.35
2019-05-26T04:57:55.551Z,93.93
2019-05-26T04:58:55.822Z,93.55
2019-05-26T04:59:55.841Z,93.07
2019-05-26T05:00:55.868Z,92.21
2019-05-26T05:01:55.888Z,91.87
2019-05-26T05:03:10.577Z,91.39
2019-05-26T05:03:55.928Z,91.2
2019-05-26T05:04:55.951Z,91.01
2019-05-26T05:05:55.974Z,91.01
2019-05-26T05:06:55.998Z,91.68
2019-05-26T05:07:56.026Z,90.34
2019-05-26T05:08:56.103Z,89.52
2019-05-26T05:09:56.063Z,88.51
2019-05-26T05:10:56.090Z,87.08
2019-05-26T05:11:56.110Z,84.91
2019-05-26T05:12:55.887Z,85.72
2019-05-26T05:13:56.153Z,84.48
2019-05-26T05:14:56.181Z,84.28
2019-05-26T05:15:56.202Z,83.91
2019-05-26T05:16:56.225Z,83.61
2019-05-26T05:17:56.248Z,82.94
2019-05-26T05:19:10.934Z,83.52
2019-05-26T05:19:56.317Z,83.71
2019-05-26T05:20:56.324Z,83.33
2019-05-26T05:21:56.362Z,82.08
2019-05-26T05:22:56.117Z,81.93
2019-05-26T05:23:56.396Z,80.68
2019-05-26T05:24:56.411Z,79.53
2019-05-26T05:25:56.435Z,78.61
2019-05-26T05:26:56.459Z,77.59
2019-05-26T05:27:56.235Z,76.25
2019-05-26T05:28:56.512Z,73.79
2019-05-26T05:29:56.539Z,71.04
2019-05-26T05:30:56.604Z,68.9
2019-05-26T05:31:56.580Z,68.32
2019-05-26T05:32:56.358Z,66.81
2019-05-26T05:34:11.295Z,64.15
2019-05-26T05:34:56.664Z,63.09
2019-05-26T05:35:56.679Z,61
2019-05-26T05:36:56.708Z,60.83
2019-05-26T05:37:56.732Z,60.19
2019-05-26T05:38:56.757Z,58.68
2019-05-26T05:39:56.787Z,56.58
2019-05-26T05:41:02.272Z,55.62
2019-05-26T05:41:56.835Z,56.48
2019-05-26T05:42:56.862Z,55.07
2019-05-26T05:43:56.906Z,54.87
2019-05-26T05:44:56.916Z,54.19
2019-05-26T05:45:56.942Z,53.93
2019-05-26T05:46:56.971Z,53.83
2019-05-26T05:47:56.998Z,53.83
2019-05-26T05:48:57.048Z,53.45
2019-05-26T05:49:57.066Z,52.87
2019-05-26T05:50:57.079Z,52.97
2019-05-26T05:51:57.107Z,54.65
2019-05-26T05:52:57.195Z,55.78
2019-05-26T05:53:57.162Z,56.16
2019-05-26T05:55:57.224Z,56.26
2019-05-26T05:56:58.178Z,55.52
2019-05-26T05:57:57.271Z,54.17
2019-05-26T05:58:57.298Z,53.78
2019-05-26T05:59:57.326Z,55.13
2019-05-26T06:00:57.354Z,55.2
2019-05-26T06:01:57.384Z,54.94
2019-05-26T06:02:57.409Z,55.98
2019-05-26T06:03:57.448Z,55.4
2019-05-26T06:04:57.471Z,55.01
2019-05-26T06:06:12.155Z,55.13
2019-05-26T06:06:57.521Z,55.04
2019-05-26T06:07:57.548Z,55.13
2019-05-26T06:08:57.577Z,53.97
2019-05-26T06:09:57.609Z,54.49
2019-05-26T06:10:57.628Z,51.9
2019-05-26T06:11:59.592Z,52.48
2019-05-26T06:12:57.682Z,52.75
2019-05-26T06:13:57.716Z,53.71
2019-05-26T06:14:57.760Z,51.9
2019-05-26T06:16:57.802Z,52.12
2019-05-26T06:18:57.849Z,52.12
2019-05-26T06:20:57.906Z,50.57
2019-05-26T06:22:12.601Z,50.5
2019-05-26T06:22:57.962Z,50.5
2019-05-26T06:23:57.989Z,50.6
2019-05-26T06:24:58.028Z,50.67
2019-05-26T06:25:58.046Z,51.35
2019-05-26T06:26:58.082Z,51.32
2019-05-26T06:27:58.186Z,52
2019-05-26T06:28:58.135Z,51.42
2019-05-26T06:30:01.540Z,51.51
2019-05-26T06:30:58.186Z,51.64
2019-05-26T06:31:59.356Z,51.35
2019-05-26T06:32:58.245Z,50.57
2019-05-26T06:33:58.276Z,51.32
2019-05-26T06:34:58.305Z,50.93
2019-05-26T06:35:58.332Z,50.76
2019-05-26T06:36:58.361Z,51.44
2019-05-26T06:38:13.055Z,50.18
2019-05-26T06:38:58.428Z,49.65
2019-05-26T06:39:58.449Z,50.04
2019-05-26T06:40:58.477Z,49.75
2019-05-26T06:41:58.505Z,49.27
2019-05-26T06:42:58.546Z,50.12
2019-05-26T06:43:58.564Z,49.82
2019-05-26T06:44:58.594Z,48.88
2019-05-26T06:45:58.630Z,49.37
2019-05-26T06:47:58.759Z,48.15
2019-05-26T06:48:58.714Z,48.88
2019-05-26T06:50:58.772Z,49.05
2019-05-26T06:51:58.801Z,49.92
2019-05-26T06:52:58.830Z,50.12
2019-05-26T06:54:13.527Z,49.27
2019-05-26T06:54:58.893Z,47.94
2019-05-26T06:55:58.926Z,48.35
2019-05-26T06:56:58.950Z,46.31
2019-05-26T06:57:58.981Z,47.02
2019-05-26T06:59:02.681Z,46.55
2019-05-26T06:59:59.041Z,45.87
2019-05-26T07:00:59.074Z,46.16
2019-05-26T07:01:59.101Z,44.64
2019-05-26T07:02:59.137Z,45.12
2019-05-26T07:03:59.162Z,45.37
2019-05-26T07:04:59.197Z,47.16
2019-05-26T07:05:59.225Z,46.67
2019-05-26T07:06:59.257Z,46.43
2019-05-26T07:07:59.294Z,45.48
2019-05-26T07:09:13.982Z,46.16
2019-05-26T07:09:59.413Z,45.78
2019-05-26T07:10:59.378Z,45.51
2019-05-26T07:12:02.795Z,44.56
2019-05-26T07:12:59.440Z,43.41
2019-05-26T07:13:59.469Z,42.27
2019-05-26T07:14:59.502Z,42.25
2019-05-26T07:15:59.531Z,43.4
2019-05-26T07:16:59.568Z,44.37
2019-05-26T07:17:59.595Z,44.34
2019-05-26T07:18:59.625Z,44.51
2019-05-26T07:21:59.723Z,45.56
2019-05-26T07:22:59.754Z,45.39
2019-05-26T07:23:59.779Z,44.51
2019-05-26T07:24:59.810Z,43.88
2019-05-26T07:25:59.841Z,43.41
2019-05-26T07:26:59.874Z,42.68
2019-05-26T07:27:59.905Z,41.88
2019-05-26T07:28:59.939Z,42.46
2019-05-26T07:29:59.964Z,42.68
2019-05-26T07:31:00.011Z,41.05
2019-05-26T07:32:00.030Z,41.14
2019-05-26T07:33:00.072Z,42.39
2019-05-26T07:34:00.122Z,42.5
2019-05-26T07:35:00.128Z,41.24
2019-05-26T07:36:00.158Z,41.24
2019-05-26T07:37:00.184Z,40.37
2019-05-26T07:38:00.222Z,40.19
2019-05-26T07:39:00.249Z,40.58
2019-05-26T07:40:00.278Z,42.81
2019-05-26T07:41:14.977Z,42.35
2019-05-26T07:42:12.321Z,42.56
2019-05-26T07:43:00.373Z,43.41
2019-05-26T07:44:00.405Z,44.65
2019-05-26T07:45:00.439Z,43.68
2019-05-26T07:46:00.473Z,43.84
2019-05-26T07:47:00.508Z,44.23
2019-05-26T07:48:00.531Z,45
2019-05-26T07:49:00.560Z,44.42
2019-05-26T07:50:00.647Z,44.51
2019-05-26T07:51:00.619Z,46.02
2019-05-26T07:52:00.659Z,44.49
2019-05-26T07:53:00.681Z,46.07
2019-05-26T07:54:00.719Z,45.65
2019-05-26T07:56:00.780Z,46.33
2019-05-26T07:57:15.472Z,45
2019-05-26T07:58:00.967Z,44.51
2019-05-26T07:59:00.861Z,44.42
2019-05-26T08:00:00.893Z,44.92
2019-05-26T08:01:00.925Z,44.73
2019-05-26T08:02:00.957Z,43.66
2019-05-26T08:03:00.986Z,42.6
2019-05-26T08:04:01.012Z,43.27
2019-05-26T08:05:01.043Z,43.37
2019-05-26T08:06:01.070Z,43.37
2019-05-26T08:07:01.124Z,43.18
2019-05-26T08:08:14.632Z,44.32
2019-05-26T08:09:01.160Z,44.88
2019-05-26T08:11:01.228Z,44.68
2019-05-26T08:12:01.255Z,44.4
2019-05-26T08:13:15.949Z,43.54
2019-05-26T08:14:01.308Z,43.16
2019-05-26T08:15:01.342Z,43.93
2019-05-26T08:16:01.373Z,44.1
2019-05-26T08:17:01.410Z,45.17
2019-05-26T08:18:01.430Z,45.17
2019-05-26T08:19:01.466Z,45.07
2019-05-26T08:20:01.497Z,45.81
2019-05-26T08:21:01.515Z,46.29
2019-05-26T08:22:01.546Z,46.09
2019-05-26T08:23:01.576Z,46.67
2019-05-26T08:25:01.635Z,46.41
2019-05-26T08:26:01.671Z,46.22
2019-05-26T08:27:01.693Z,46.7
2019-05-26T08:28:01.721Z,46.02
2019-05-26T08:29:16.414Z,45.47
2019-05-26T08:30:01.785Z,46.41
2019-05-26T08:31:01.812Z,46.22
2019-05-26T08:32:01.834Z,46.51
2019-05-26T08:33:01.867Z,45.85
2019-05-26T08:34:01.892Z,46.12
2019-05-26T08:35:01.921Z,45.25
2019-05-26T08:36:01.951Z,46.12
2019-05-26T08:37:01.979Z,46.8
2019-05-26T08:38:02.009Z,46.02
2019-05-26T08:39:02.034Z,46.31
2019-05-26T08:40:02.213Z,47.06
2019-05-26T08:41:02.098Z,45.34
2019-05-26T08:42:02.199Z,45.05
2019-05-26T08:43:01.901Z,44.59
2019-05-26T08:44:16.847Z,45
2019-05-26T08:45:02.217Z,45.34
2019-05-26T08:46:02.239Z,45.34
2019-05-26T08:47:02.270Z,45.25
2019-05-26T08:48:02.301Z,45.17
2019-05-26T08:49:02.324Z,45.37
2019-05-26T08:50:02.353Z,44.86
2019-05-26T08:51:02.132Z,46
2019-05-26T08:52:02.413Z,46.19
2019-05-26T08:53:02.480Z,44.98
2019-05-26T08:54:02.466Z,44.68
2019-05-26T08:55:02.500Z,44.86
2019-05-26T08:56:02.527Z,44.88
2019-05-26T08:58:02.582Z,44.71
2019-05-26T08:59:02.613Z,46.14
2019-05-26T09:00:02.646Z,43.45
2019-05-26T09:01:02.669Z,43.26
2019-05-26T09:02:02.697Z,43.26
2019-05-26T09:03:02.763Z,43.47
2019-05-26T09:04:02.753Z,43.37
2019-05-26T09:05:02.784Z,43.66
2019-05-26T09:06:02.813Z,43.47
2019-05-26T09:07:02.841Z,43.35
2019-05-26T09:08:02.869Z,43.35
2019-05-26T09:09:02.900Z,43.57
2019-05-26T09:10:02.927Z,43.93
2019-05-26T09:11:02.959Z,43.27
2019-05-26T09:12:02.984Z,43.59
2019-05-26T09:13:04.082Z,43.27
2019-05-26T09:14:03.043Z,42.6
2019-05-26T09:15:03.096Z,44.49
2019-05-26T09:16:17.765Z,45.15
2019-05-26T09:17:03.130Z,45.56
2019-05-26T09:18:03.259Z,44.03
2019-05-26T09:19:03.184Z,45.1
2019-05-26T09:20:03.217Z,46.43
2019-05-26T09:21:03.242Z,45.75
2019-05-26T09:22:03.273Z,45.73
2019-05-26T09:23:03.301Z,46.51
2019-05-26T09:24:03.327Z,46.41
2019-05-26T09:25:03.357Z,47.26
2019-05-26T09:26:03.387Z,46.39
2019-05-26T09:29:03.475Z,45.95
2019-05-26T09:30:03.495Z,45
2019-05-26T09:31:03.523Z,45.95
2019-05-26T09:32:18.217Z,44.68
2019-05-26T09:33:03.584Z,45.1
2019-05-26T09:34:03.607Z,44.51
2019-05-26T09:35:03.636Z,44.9
2019-05-26T09:36:03.664Z,43.91
2019-05-26T09:37:03.692Z,44.42
2019-05-26T09:38:03.733Z,45
2019-05-26T09:39:03.747Z,45.54
2019-05-26T09:40:03.777Z,46.02
2019-05-26T09:41:03.824Z,45.65
2019-05-26T09:42:03.839Z,45.54
2019-05-26T09:43:18.188Z,46.77
2019-05-26T09:44:03.895Z,45.65
2019-05-26T09:45:03.917Z,44.98
2019-05-26T09:46:03.947Z,45.56
2019-05-26T09:47:03.976Z,44.68
2019-05-26T09:48:18.663Z,46.16
2019-05-26T09:49:04.031Z,45.2
2019-05-26T09:50:04.053Z,45.21
2019-05-26T09:51:04.085Z,43.4
2019-05-26T09:52:04.109Z,42.54
2019-05-26T09:53:04.139Z,42.64
2019-05-26T09:54:04.753Z,42.23
2019-05-26T09:55:04.217Z,42.61
2019-05-26T09:56:04.222Z,42.69
2019-05-26T09:58:04.280Z,43.49
2019-05-26T09:59:04.309Z,41.49
2019-05-26T10:00:04.365Z,40.91
2019-05-26T10:01:04.363Z,41.06
2019-05-26T10:02:04.416Z,41.26
2019-05-26T10:03:04.419Z,42.33
2019-05-26T10:04:19.112Z,41.82
2019-05-26T10:05:04.475Z,41.43
2019-05-26T10:06:04.504Z,41.24
2019-05-26T10:07:04.294Z,42.57
2019-05-26T10:08:04.561Z,41.24
2019-05-26T10:09:04.588Z,41.14
2019-05-26T10:10:04.624Z,41.16
2019-05-26T10:11:04.642Z,41.53
2019-05-26T10:12:04.670Z,41.24
2019-05-26T10:13:04.700Z,40.95
2019-05-26T10:14:04.478Z,41.99
2019-05-26T10:16:04.870Z,42.67
2019-05-26T10:17:04.810Z,41.8
2019-05-26T10:18:04.838Z,42.48
2019-05-26T10:19:19.533Z,43.79
2019-05-26T10:20:04.910Z,43.7
2019-05-26T10:21:04.927Z,43.52
2019-05-26T10:22:04.952Z,42.26
2019-05-26T10:23:04.982Z,42.94
2019-05-26T10:24:05.009Z,43.31
2019-05-26T10:25:05.033Z,43.48
2019-05-26T10:26:04.818Z,44.16
2019-05-26T10:27:05.092Z,43.23
2019-05-26T10:28:05.125Z,43.33
2019-05-26T10:29:05.144Z,42.55
2019-05-26T10:30:05.195Z,42.77
2019-05-26T10:31:05.200Z,43.52
2019-05-26T10:32:05.229Z,43.96
2019-05-26T10:33:05.255Z,44.54
2019-05-26T10:34:05.303Z,43.77
2019-05-26T10:35:05.313Z,45.15
2019-05-26T10:36:05.348Z,43.6
2019-05-26T10:37:05.395Z,43.99
2019-05-26T10:38:05.444Z,43.89
2019-05-26T10:39:05.418Z,43.7
2019-05-26T10:40:05.455Z,45.03
2019-05-26T10:41:05.476Z,46.19
2019-05-26T10:42:05.502Z,45.61
2019-05-26T10:43:05.539Z,45.42
2019-05-26T10:44:05.555Z,45.13
2019-05-26T10:45:05.585Z,45.71
2019-05-26T10:46:05.409Z,45.4
2019-05-26T10:48:05.833Z,45.2
2019-05-26T10:49:05.694Z,44.91
2019-05-26T10:50:05.719Z,46.08
2019-05-26T10:51:20.409Z,44.64
2019-05-26T10:52:05.770Z,43.87
2019-05-26T10:53:05.802Z,44.45
2019-05-26T10:54:05.827Z,43.7
2019-05-26T10:55:05.872Z,44.35
2019-05-26T10:56:05.878Z,44.45
2019-05-26T10:57:05.910Z,44.18
2019-05-26T10:58:05.932Z,43.82
2019-05-26T10:59:05.965Z,44.67
2019-05-26T11:00:05.993Z,44.18
2019-05-26T11:01:06.014Z,43.91
2019-05-26T11:02:06.045Z,43.91
2019-05-26T11:03:06.109Z,43.99
2019-05-26T11:04:06.099Z,44.59
2019-05-26T11:06:06.152Z,43.91
2019-05-26T11:07:20.844Z,43.5
2019-05-26T11:08:06.214Z,43.84
2019-05-26T11:09:06.234Z,43.45
2019-05-26T11:11:06.289Z,43.27
2019-05-26T11:12:06.313Z,42.4
2019-05-26T11:13:06.340Z,42.09
2019-05-26T11:14:06.371Z,41.72
2019-05-26T11:15:06.395Z,42.02
2019-05-26T11:17:06.461Z,43.31
2019-05-26T11:18:06.477Z,43.33
2019-05-26T11:19:06.504Z,43.62
2019-05-26T11:20:06.534Z,44.57
2019-05-26T11:21:06.569Z,43.41
2019-05-26T11:22:06.589Z,44.96
2019-05-26T11:23:21.278Z,43.99
2019-05-26T11:24:06.642Z,44.57
2019-05-26T11:25:06.668Z,44.96
2019-05-26T11:26:06.444Z,43.72
2019-05-26T11:27:14.209Z,43.82
2019-05-26T11:28:06.753Z,43.74
2019-05-26T11:29:06.774Z,44.51
2019-05-26T11:30:06.805Z,43.74
2019-05-26T11:31:06.581Z,43.45
2019-05-26T11:32:06.864Z,43.45
2019-05-26T11:33:06.884Z,43.64
2019-05-26T11:34:06.931Z,43.35
2019-05-26T11:35:06.941Z,42.6
2019-05-26T11:36:06.964Z,42.67
2019-05-26T11:37:06.993Z,42.48
2019-05-26T11:38:07.019Z,42.85
2019-05-26T11:39:21.718Z,43.23
2019-05-26T11:40:07.074Z,43.31
2019-05-26T11:41:07.111Z,43.21
2019-05-26T11:42:15.862Z,43.79
2019-05-26T11:44:19.959Z,44.67
2019-05-26T11:45:07.209Z,43.91
2019-05-26T11:46:07.236Z,43.91
2019-05-26T11:47:07.262Z,43.16
2019-05-26T11:48:07.290Z,42.57
2019-05-26T11:49:07.318Z,42.29
2019-05-26T11:50:07.346Z,42.65
2019-05-26T11:51:07.373Z,42.65
2019-05-26T11:52:07.459Z,43.12
2019-05-26T11:53:07.427Z,43.7
2019-05-26T11:54:22.118Z,43.6
2019-05-26T11:55:07.554Z,43.12
2019-05-26T11:56:07.562Z,43.5
2019-05-26T11:57:07.535Z,43.6
2019-05-26T11:58:07.563Z,43.43
2019-05-26T11:59:07.590Z,43.41
2019-05-26T12:00:08.036Z,43.6
2019-05-26T12:01:07.644Z,43.58
2019-05-26T12:02:07.671Z,43.99
2019-05-26T12:03:07.699Z,43.99
2019-05-26T12:04:07.722Z,43.99
2019-05-26T12:05:07.779Z,44.09
2019-05-26T12:06:07.778Z,44.09
2019-05-26T12:07:07.852Z,43.87
2019-05-26T12:08:07.836Z,44.37
2019-05-26T12:09:07.861Z,43.79
2019-05-26T12:10:07.900Z,43.7
2019-05-26T12:11:07.930Z,44.54
2019-05-26T12:12:07.938Z,45.61
2019-05-26T12:13:07.720Z,45.42
2019-05-26T12:14:07.993Z,44.35
2019-05-26T12:15:08.017Z,44.47
2019-05-26T12:16:08.047Z,43.99
2019-05-26T12:17:08.092Z,43.89
2019-05-26T12:18:08.097Z,44.67
2019-05-26T12:19:08.134Z,44.4
2019-05-26T12:20:08.061Z,43.35
2019-05-26T12:21:08.179Z,44.01
2019-05-26T12:22:08.208Z,42.67
2019-05-26T12:23:08.233Z,42.57
2019-05-26T12:24:08.261Z,42.38
2019-05-26T12:25:08.297Z,42.94
2019-05-26T12:26:22.977Z,44.01
2019-05-26T12:27:08.343Z,43.43
2019-05-26T12:28:08.370Z,43.33
2019-05-26T12:29:08.391Z,43.52
2019-05-26T12:30:08.421Z,43.62
2019-05-26T12:31:08.446Z,44.01
2019-05-26T12:32:08.475Z,43.62
2019-05-26T12:33:08.502Z,43.13
2019-05-26T12:34:08.525Z,42.75
2019-05-26T12:35:08.553Z,43.02
2019-05-26T12:36:08.581Z,43.41
2019-05-26T12:37:08.611Z,43.52
2019-05-26T12:39:08.662Z,43.45
2019-05-26T12:41:08.717Z,42.29
2019-05-26T12:42:23.410Z,42.55
2019-05-26T12:43:08.770Z,43.82
2019-05-26T12:44:10.994Z,42.57
2019-05-26T12:45:08.830Z,43.33
2019-05-26T12:46:08.903Z,43.5
2019-05-26T12:47:08.879Z,43.5
2019-05-26T12:48:08.904Z,44.35
2019-05-26T12:49:08.930Z,44.01
2019-05-26T12:50:08.957Z,43.43
2019-05-26T12:51:08.985Z,43.23
2019-05-26T12:52:09.007Z,43.5
2019-05-26T12:53:09.036Z,43.7
2019-05-26T12:54:08.816Z,43.79
2019-05-26T12:55:12.121Z,43.5
2019-05-26T12:56:09.115Z,43.99
2019-05-26T12:57:09.148Z,43.99
2019-05-26T12:58:23.832Z,43.33
2019-05-26T12:59:09.199Z,43.41
2019-05-26T13:00:09.227Z,43.21
2019-05-26T13:01:09.250Z,43.33
2019-05-26T13:02:09.276Z,43.33
2019-05-26T13:03:09.301Z,43.43
2019-05-26T13:04:09.329Z,43.13
2019-05-26T13:05:09.387Z,43.41
2019-05-26T13:06:09.392Z,43.13
2019-05-26T13:07:09.408Z,42.55
2019-05-26T13:08:09.435Z,42.54
2019-05-26T13:09:09.461Z,42.54
2019-05-26T13:11:09.515Z,43.6
2019-05-26T13:12:09.547Z,43.23
2019-05-26T13:13:09.567Z,43.13
2019-05-26T13:14:24.260Z,42.75
2019-05-26T13:15:09.620Z,42.26
2019-05-26T13:16:09.649Z,42.46
2019-05-26T13:17:09.681Z,42.65
2019-05-26T13:18:09.703Z,42.75
2019-05-26T13:19:09.727Z,42.26
2019-05-26T13:20:09.770Z,42.46
2019-05-26T13:21:09.839Z,42.57
2019-05-26T13:22:09.806Z,42.38
2019-05-26T13:23:09.835Z,42.29
2019-05-26T13:24:09.861Z,42.29
2019-05-26T13:25:09.891Z,42.29
2019-05-26T13:27:09.945Z,42.57
2019-05-26T13:28:09.989Z,42.65
2019-05-26T13:29:25.779Z,42.09
2019-05-26T13:30:10.024Z,42.26
2019-05-26T13:31:10.046Z,41.97
2019-05-26T13:33:10.109Z,42.61
2019-05-26T13:34:10.133Z,43.31
2019-05-26T13:35:10.156Z,43.29
2019-05-26T13:36:10.189Z,42.71
2019-05-26T13:37:10.207Z,42.41
2019-05-26T13:38:10.233Z,42.63
2019-05-26T13:39:10.267Z,42.9